createdAt,value
2022-08-20T05:10:33.868Z,99.99
2022-08-20T05:11:37.029Z,99.99
2022-08-20T05:12:35.614Z,99.99
2022-08-20T05:13:34.133Z,99.99
2022-08-20T05:14:34.062Z,99.99
2022-08-20T05:15:33.800Z,99.99
2022-08-20T05:16:33.743Z,99.99
2022-08-20T05:17:34.258Z,99.99
2022-08-20T05:18:34.253Z,99.99
2022-08-20T05:19:38.309Z,99.99
2022-08-20T05:20:34.682Z,99.99
2022-08-20T05:21:33.698Z,99.99
2022-08-20T05:22:33.703Z,99.99
2022-08-20T05:23:33.685Z,99.99
2022-08-20T05:24:33.864Z,99.99
2022-08-20T05:25:33.702Z,99.99
2022-08-20T05:26:33.603Z,99.99
2022-08-20T05:27:33.595Z,99.99
2022-08-20T05:28:36.832Z,99.99
2022-08-20T05:29:34.526Z,99.99
2022-08-20T05:30:34.247Z,99.99
2022-08-20T05:31:33.846Z,99.99
2022-08-20T05:32:33.485Z,99.99
2022-08-20T05:33:34.914Z,99.99
2022-08-20T05:34:33.525Z,99.99
2022-08-20T05:35:33.809Z,99.99
2022-08-20T05:36:33.456Z,99.99
2022-08-20T05:37:33.399Z,99.99
2022-08-20T05:38:33.927Z,99.99
2022-08-20T05:39:37.334Z,99.99
2022-08-20T05:40:33.389Z,99.99
2022-08-20T05:41:33.423Z,99.99
2022-08-20T05:42:33.351Z,99.99
2022-08-20T05:43:33.321Z,99.99
2022-08-20T05:44:33.382Z,99.99
2022-08-20T05:45:33.301Z,99.99
2022-08-20T05:46:33.302Z,99.99
2022-08-20T05:47:33.231Z,99.99
2022-08-20T05:48:34.222Z,99.99
2022-08-20T05:49:33.243Z,99.99
2022-08-20T05:50:33.246Z,99.99
2022-08-20T05:51:33.302Z,99.99
2022-08-20T05:52:33.204Z,99.99
2022-08-20T05:53:33.223Z,99.99
2022-08-20T05:54:33.163Z,99.99
2022-08-20T05:55:33.248Z,99.99
2022-08-20T05:56:33.157Z,99.99
2022-08-20T05:57:33.224Z,99.99
2022-08-20T05:58:33.084Z,99.99
2022-08-20T05:59:33.103Z,99.99
2022-08-20T06:00:33.076Z,99.99
2022-08-20T06:01:33.148Z,99.99
2022-08-20T06:02:33.085Z,99.99
2022-08-20T06:03:33.025Z,99.99
2022-08-20T06:04:33.977Z,99.99
2022-08-20T06:05:33.047Z,99.99
2022-08-20T06:06:44.890Z,99.99
2022-08-20T06:07:33.992Z,99.99
2022-08-20T06:08:32.986Z,99.99
2022-08-20T06:09:33.084Z,99.99
2022-08-20T06:10:32.938Z,99.99
2022-08-20T06:11:37.033Z,99.99
2022-08-20T06:12:32.869Z,99.99
2022-08-20T06:13:32.920Z,99.99
2022-08-20T06:14:32.893Z,99.99
2022-08-20T06:15:32.888Z,99.99
2022-08-20T06:16:32.853Z,99.99
2022-08-20T06:17:39.357Z,99.62
2022-08-20T06:18:33.864Z,99.82
2022-08-20T06:19:33.295Z,99.92
2022-08-20T06:20:32.792Z,99.82
2022-08-20T06:21:32.816Z,99.99
2022-08-20T06:22:32.822Z,99.92
2022-08-20T06:23:54.363Z,99.52
2022-08-20T06:24:34.606Z,99.99
2022-08-20T06:25:37.410Z,99.98
2022-08-20T06:26:33.725Z,99.48
2022-08-20T06:27:33.139Z,99.68
2022-08-20T06:28:32.696Z,99.57
2022-08-20T06:29:32.657Z,98.87
2022-08-20T06:30:32.663Z,98.87
2022-08-20T06:31:32.699Z,99.02
2022-08-20T06:32:33.010Z,98.13
2022-08-20T06:33:32.695Z,97.92
2022-08-20T06:34:32.640Z,98.32
2022-08-20T06:35:32.759Z,97.67
2022-08-20T06:36:32.599Z,96.82
2022-08-20T06:37:32.554Z,97.17
2022-08-20T06:38:32.591Z,96.12
2022-08-20T06:39:32.576Z,97.17
2022-08-20T06:40:32.661Z,97.38
2022-08-20T06:41:35.772Z,97.08
2022-08-20T06:42:32.472Z,96.97
2022-08-20T06:43:32.497Z,97.47
2022-08-20T06:44:32.514Z,97.47
2022-08-20T06:45:32.474Z,97.13
2022-08-20T06:46:32.455Z,96.03
2022-08-20T06:47:32.466Z,95.83
2022-08-20T06:48:33.337Z,96.53
2022-08-20T06:49:34.209Z,95.32
2022-08-20T06:50:32.386Z,96.03
2022-08-20T06:51:33.197Z,96.43
2022-08-20T06:52:52.175Z,95.53
2022-08-20T06:53:33.367Z,95.32
2022-08-20T06:54:32.476Z,95.03
2022-08-20T06:55:32.336Z,95.23
2022-08-20T06:56:32.377Z,95.43
2022-08-20T06:57:32.290Z,95.03
2022-08-20T06:58:37.988Z,95.12
2022-08-20T06:59:33.328Z,95.53
2022-08-20T07:00:32.265Z,94.73
2022-08-20T07:01:32.814Z,94.62
2022-08-20T07:02:32.290Z,94.62
2022-08-20T07:03:32.160Z,94.53
2022-08-20T07:04:32.244Z,94.08
2022-08-20T07:05:32.161Z,94.38
2022-08-20T07:06:33.113Z,94.18
2022-08-20T07:07:32.185Z,94.18
2022-08-20T07:08:32.595Z,93.98
2022-08-20T07:09:33.139Z,93.38
2022-08-20T07:10:32.082Z,93.12
2022-08-20T07:11:32.098Z,92.82
2022-08-20T07:12:32.087Z,93.98
2022-08-20T07:13:32.993Z,93.88
2022-08-20T07:14:32.060Z,92.48
2022-08-20T07:15:32.093Z,93.13
2022-08-20T07:16:32.140Z,92.24
2022-08-20T07:17:32.076Z,92.43
2022-08-20T07:18:32.114Z,91.93
2022-08-20T07:19:32.039Z,91.69
2022-08-20T07:20:32.028Z,91.69
2022-08-20T07:21:31.971Z,91.79
2022-08-20T07:22:31.989Z,92.05
2022-08-20T07:23:31.925Z,90.95
2022-08-20T07:24:32.849Z,90.95
2022-08-20T07:25:31.882Z,91.40
2022-08-20T07:26:31.888Z,89.51
2022-08-20T07:27:32.084Z,89.70
2022-08-20T07:28:35.522Z,89.81
2022-08-20T07:29:31.845Z,90.50
2022-08-20T07:30:31.827Z,89.81
2022-08-20T07:31:34.917Z,90.06
2022-08-20T07:32:31.908Z,89.36
2022-08-20T07:33:33.162Z,88.71
2022-08-20T07:34:31.805Z,89.70
2022-08-20T07:35:33.359Z,89.51
2022-08-20T07:36:31.844Z,89.01
2022-08-20T07:37:32.489Z,88.60
2022-08-20T07:38:31.834Z,89.90
2022-08-20T07:39:32.626Z,89.11
2022-08-20T07:40:31.929Z,88.40
2022-08-20T07:41:32.108Z,88.40
2022-08-20T07:42:31.666Z,88.40
2022-08-20T07:43:32.070Z,88.60
2022-08-20T07:44:31.862Z,88.10
2022-08-20T07:45:31.864Z,88.81
2022-08-20T07:46:31.902Z,89.66
2022-08-20T07:47:32.332Z,88.76
2022-08-20T07:48:32.693Z,89.56
2022-08-20T07:49:31.649Z,88.06
2022-08-20T07:50:31.781Z,88.82
2022-08-20T07:51:31.533Z,88.22
2022-08-20T07:52:32.313Z,89.12
2022-08-20T07:53:35.328Z,87.12
2022-08-20T07:54:31.540Z,87.08
2022-08-20T07:55:31.704Z,87.58
2022-08-20T07:56:32.712Z,87.38
2022-08-20T07:57:31.593Z,86.29
2022-08-20T07:58:33.522Z,86.08
2022-08-20T20:14:13.188Z,94.12
2022-08-20T20:15:13.176Z,95.54
2022-08-20T22:12:03.370Z,99.99
2022-08-20T22:13:03.046Z,99.99
2022-08-20T22:14:03.171Z,99.99
2022-08-20T22:15:02.808Z,99.99
2022-08-20T22:16:02.795Z,99.99
2022-08-20T22:17:02.777Z,99.99
2022-08-20T22:18:02.785Z,99.99
2022-08-20T22:19:02.741Z,99.99
2022-08-20T22:20:02.743Z,99.99
2022-08-20T22:21:02.703Z,99.99
2022-08-20T22:22:02.728Z,99.99
2022-08-20T22:23:02.676Z,99.99
2022-08-20T22:24:02.742Z,99.99
2022-08-20T22:25:02.677Z,99.99
2022-08-20T22:26:02.649Z,99.99
2022-08-20T22:27:02.646Z,99.99
2022-08-20T23:18:34.206Z,99.99
2022-08-20T23:19:34.143Z,99.99
2022-08-20T23:20:34.097Z,99.99
2022-08-20T23:21:33.992Z,99.99
2022-08-20T23:22:34.155Z,99.99
2022-08-20T23:23:34.049Z,99.99
2022-08-20T23:24:33.986Z,99.99
2022-08-20T23:25:33.912Z,99.99
2022-08-20T23:26:33.904Z,99.99
2022-08-20T23:27:33.899Z,99.99
2022-08-20T23:28:33.913Z,99.99
2022-08-20T23:29:33.854Z,99.99
2022-08-20T23:30:33.835Z,99.99
2022-08-20T23:31:33.835Z,99.99
2022-08-20T23:32:33.813Z,99.99
2022-08-20T23:33:33.860Z,99.99
2022-08-20T23:34:33.823Z,99.99
2022-08-20T23:35:33.765Z,99.99
2022-08-20T23:36:33.765Z,99.99
2022-08-20T23:37:33.866Z,99.99
2022-08-20T23:38:33.756Z,99.99
2022-08-20T23:39:33.879Z,99.99
2022-08-20T23:40:33.696Z,99.99
2022-08-20T23:41:33.705Z,99.99
2022-08-20T23:42:33.697Z,99.99
2022-08-20T23:43:33.967Z,99.99
2022-08-20T23:44:33.645Z,99.99
2022-08-20T23:45:33.627Z,99.99
2022-08-20T23:46:33.647Z,99.99
2022-08-20T23:47:33.631Z,99.99
2022-08-20T23:48:33.598Z,99.99
2022-08-20T23:49:33.600Z,99.99
2022-08-20T23:50:33.559Z,99.99
2022-08-20T23:51:33.564Z,99.99
2022-08-20T23:52:34.552Z,99.99
2022-08-20T23:53:33.528Z,99.99
2022-08-20T23:54:33.547Z,99.99
2022-08-20T23:55:33.511Z,99.99
2022-08-20T23:56:33.476Z,99.99
2022-08-20T23:57:33.452Z,99.99
2022-08-20T23:58:33.500Z,99.99
2022-08-20T23:59:33.420Z,99.99
